createdAt,value
2023-01-15T00:02:09.700Z,98629.19
2023-01-15T00:04:36.919Z,98617.31
2023-01-15T00:07:04.645Z,98619.63
2023-01-15T00:09:31.891Z,98617.31
2023-01-15T00:11:58.688Z,98614.09
2023-01-15T00:14:25.636Z,98613.13
2023-01-15T00:16:53.495Z,98603.94
2023-01-15T00:19:20.507Z,98610.63
2023-01-15T00:21:47.312Z,98621.31
2023-01-15T00:24:32.707Z,98607.97
2023-01-15T00:27:17.984Z,98605.66
2023-01-15T00:29:44.978Z,98611.50
2023-01-15T00:32:12.064Z,98607.84
2023-01-15T00:34:38.927Z,98594.97
2023-01-15T00:37:05.919Z,98593.44
2023-01-15T00:39:33.586Z,98609.34
2023-01-15T00:42:00.423Z,98593.44
2023-01-15T00:44:27.229Z,98587.59
2023-01-15T00:46:54.610Z,98589.63
2023-01-15T00:49:21.961Z,98588.59
2023-01-15T00:51:50.194Z,98595.31
2023-01-15T00:54:17.821Z,98583.25
2023-01-15T00:56:45.021Z,98589.94
2023-01-15T00:59:12.455Z,98575.25
2023-01-15T01:01:39.437Z,98590.94
2023-01-15T01:04:06.725Z,98588.94
2023-01-15T01:06:33.500Z,98590.94
2023-01-15T01:09:00.261Z,98580.25
2023-01-15T01:11:27.163Z,98580.56
2023-01-15T01:13:56.534Z,98581.94
2023-01-15T01:16:37.881Z,98595.31
2023-01-15T01:19:12.345Z,98584.94
2023-01-15T01:21:41.111Z,98574.56
2023-01-15T01:24:11.415Z,98576.56
2023-01-15T01:26:38.384Z,98567.91
2023-01-15T01:29:05.302Z,98570.41
2023-01-15T01:31:32.098Z,98554.19
2023-01-15T01:33:59.744Z,98563.91
2023-01-15T01:36:32.316Z,98561.56
2023-01-15T01:39:00.026Z,98550.22
2023-01-15T01:41:28.460Z,98567.59
2023-01-15T01:44:26.990Z,98574.59
2023-01-15T01:46:53.957Z,98585.66
2023-01-15T01:49:21.112Z,98592.00
2023-01-15T01:51:54.859Z,98580.31
2023-01-15T01:54:26.080Z,98586.28
2023-01-15T01:56:53.957Z,98587.97
2023-01-15T01:59:23.637Z,98593.31
2023-01-15T02:01:51.414Z,98586.44
2023-01-15T02:04:22.620Z,98582.59
2023-01-15T02:06:49.665Z,98589.25
2023-01-15T02:09:16.480Z,98566.88
2023-01-15T02:11:43.362Z,98572.34
2023-01-15T02:14:47.185Z,98561.47
2023-01-15T02:17:29.549Z,98570.97
2023-01-15T02:20:29.332Z,98570.47
2023-01-15T02:23:23.436Z,98567.13
2023-01-15T02:26:22.004Z,98558.09
2023-01-15T02:28:54.425Z,98560.09
2023-01-15T02:31:35.124Z,98555.94
2023-01-15T02:34:27.158Z,98556.13
2023-01-15T02:37:03.747Z,98542.69
2023-01-15T02:39:33.337Z,98540.00
2023-01-15T02:42:04.400Z,98535.53
2023-01-15T02:44:34.291Z,98522.31
2023-01-15T02:47:04.163Z,98516.13
2023-01-15T02:49:33.061Z,98511.94
2023-01-15T02:52:10.607Z,98501.25
2023-01-15T02:54:58.355Z,98495.63
2023-01-15T02:57:29.349Z,98478.44
2023-01-15T02:59:58.829Z,98487.88
2023-01-15T03:02:33.149Z,98488.06
2023-01-15T03:05:13.935Z,98482.44
2023-01-15T03:07:50.723Z,98484.94
2023-01-15T03:10:18.335Z,98495.13
2023-01-15T03:13:04.255Z,98489.84
2023-01-15T03:16:34.924Z,98486.63
2023-01-15T03:19:13.987Z,98483.13
2023-01-15T03:21:52.541Z,98482.81
2023-01-15T03:24:37.644Z,98481.78
2023-01-15T03:27:04.606Z,98467.75
2023-01-15T03:29:42.138Z,98458.22
2023-01-15T03:32:09.325Z,98458.00
2023-01-15T03:34:50.906Z,98457.00
2023-01-15T03:37:19.576Z,98448.66
2023-01-15T03:39:47.359Z,98439.09
2023-01-15T03:42:43.516Z,98434.13
2023-01-15T03:45:23.843Z,98425.41
2023-01-15T03:48:06.352Z,98416.41
2023-01-15T03:50:58.447Z,98420.94
2023-01-15T03:53:38.501Z,98418.59
2023-01-15T03:56:19.533Z,98423.94
2023-01-15T03:58:51.388Z,98414.44
2023-01-15T04:01:28.541Z,98425.25
2023-01-15T04:03:57.009Z,98429.59
2023-01-15T04:06:26.808Z,98412.53
2023-01-15T04:08:54.518Z,98404.53
2023-01-15T04:11:26.590Z,98413.25
2023-01-15T04:13:54.809Z,98409.88
2023-01-15T04:16:28.316Z,98399.81
2023-01-15T04:18:55.362Z,98399.81
2023-01-15T04:21:22.918Z,98399.81
2023-01-15T04:23:50.588Z,98400.84
2023-01-15T04:26:17.757Z,98389.63
2023-01-15T04:28:45.651Z,98393.50
2023-01-15T04:31:12.674Z,98386.59
2023-01-15T04:33:40.212Z,98382.44
2023-01-15T04:36:08.999Z,98373.41
2023-01-15T04:38:38.608Z,98367.72
2023-01-15T04:41:24.966Z,98368.06
2023-01-15T04:44:06.757Z,98362.84
2023-01-15T04:46:46.000Z,98375.03
2023-01-15T04:49:16.592Z,98365.81
2023-01-15T04:51:44.930Z,98373.00
2023-01-15T04:54:16.070Z,98370.47
2023-01-15T04:56:50.828Z,98364.16
2023-01-15T04:59:24.521Z,98374.97
2023-01-15T05:02:03.287Z,98372.66
2023-01-15T05:04:32.797Z,98362.63
2023-01-15T05:07:02.784Z,98353.13
2023-01-15T05:09:29.876Z,98353.75
2023-01-15T05:11:56.680Z,98352.91
2023-01-15T05:14:23.561Z,98350.88
2023-01-15T05:16:50.581Z,98356.53
2023-01-15T05:19:17.432Z,98357.84
2023-01-15T05:21:44.992Z,98360.81
2023-01-15T05:24:17.820Z,98366.47
2023-01-15T05:26:45.433Z,98369.63
2023-01-15T05:29:13.852Z,98363.06
2023-01-15T05:31:42.860Z,98363.91
2023-01-15T05:34:11.065Z,98368.78
2023-01-15T05:36:38.268Z,98363.16
2023-01-15T05:39:05.734Z,98367.31
2023-01-15T05:41:51.350Z,98376.53
2023-01-15T05:44:29.938Z,98373.31
2023-01-15T05:47:02.577Z,98368.50
2023-01-15T05:49:31.542Z,98377.84
2023-01-15T05:52:00.773Z,98374.13
2023-01-15T05:54:35.784Z,98389.84
2023-01-15T05:57:04.087Z,98386.97
2023-01-15T05:59:32.867Z,98376.75
2023-01-15T06:02:00.240Z,98374.44
2023-01-15T06:04:27.419Z,98372.78
2023-01-15T06:06:56.049Z,98367.34
2023-01-15T06:09:23.734Z,98362.81
2023-01-15T06:11:51.516Z,98368.00
2023-01-15T06:14:18.454Z,98375.91
2023-01-15T06:16:45.881Z,98359.97
2023-01-15T06:19:15.791Z,98375.22
2023-01-15T06:21:42.636Z,98376.50
2023-01-15T06:24:10.295Z,98377.81
2023-01-15T06:26:39.714Z,98375.31
2023-01-15T06:29:06.636Z,98376.59
2023-01-15T06:31:33.601Z,98385.97
2023-01-15T06:34:00.416Z,98384.59
2023-01-15T06:36:28.830Z,98383.84
2023-01-15T06:38:55.999Z,98373.78
2023-01-15T06:41:44.148Z,98374.25
2023-01-15T06:44:36.522Z,98368.00
2023-01-15T06:47:21.350Z,98387.38
2023-01-15T06:49:57.966Z,98379.00
2023-01-15T06:52:27.871Z,98389.78
2023-01-15T06:54:55.369Z,98393.97
2023-01-15T06:57:22.470Z,98404.94
2023-01-15T06:59:50.896Z,98405.25
2023-01-15T07:02:18.549Z,98410.25
2023-01-15T07:04:46.895Z,98413.19
2023-01-15T07:07:19.538Z,98408.09
2023-01-15T07:09:46.345Z,98406.06
2023-01-15T07:12:13.231Z,98420.13
2023-01-15T07:14:40.219Z,98423.09
2023-01-15T07:17:07.588Z,98420.69
2023-01-15T07:19:34.409Z,98422.34
2023-01-15T07:22:01.210Z,98417.72
2023-01-15T07:24:28.113Z,98423.91
2023-01-15T07:26:54.998Z,98417.91
2023-01-15T07:29:22.059Z,98431.94
2023-01-15T07:31:49.631Z,98440.38
2023-01-15T07:34:16.805Z,98430.31
2023-01-15T07:36:43.891Z,98432.53
2023-01-15T07:39:12.537Z,98440.72
2023-01-15T07:41:58.278Z,98445.91
2023-01-15T07:44:43.993Z,98448.94
2023-01-15T07:47:38.518Z,98453.78
2023-01-15T07:50:09.326Z,98446.91
2023-01-15T07:52:36.154Z,98444.81
2023-01-15T07:55:04.156Z,98438.63
2023-01-15T07:57:31.547Z,98446.09
2023-01-15T07:59:58.343Z,98448.41
2023-01-15T08:02:25.225Z,98467.19
2023-01-15T08:04:51.999Z,98457.75
2023-01-15T08:07:19.073Z,98470.97
2023-01-15T08:09:46.018Z,98481.13
2023-01-15T08:12:31.670Z,98487.31
2023-01-15T08:15:13.473Z,98496.28
2023-01-15T08:17:46.477Z,98513.66
2023-01-15T08:20:26.530Z,98523.03
2023-01-15T08:22:53.784Z,98517.84
2023-01-15T08:25:24.377Z,98522.28
2023-01-15T08:27:51.895Z,98515.19
2023-01-15T08:30:24.476Z,98513.69
2023-01-15T08:32:51.473Z,98520.34
2023-01-15T08:35:18.312Z,98524.22
2023-01-15T08:37:45.182Z,98519.16
2023-01-15T08:40:13.121Z,98519.81
2023-01-15T08:42:40.797Z,98520.44
2023-01-15T08:45:08.872Z,98510.00
2023-01-15T08:47:37.348Z,98527.75
2023-01-15T08:50:06.749Z,98525.34
2023-01-15T08:52:33.692Z,98537.72
2023-01-15T08:55:01.143Z,98539.22
2023-01-15T08:57:27.977Z,98542.75
2023-01-15T08:59:54.766Z,98541.09
2023-01-15T09:02:21.629Z,98546.72
2023-01-15T09:04:48.456Z,98554.94
2023-01-15T09:07:15.635Z,98552.72
2023-01-15T09:09:42.468Z,98555.03
2023-01-15T09:12:09.375Z,98559.19
2023-01-15T09:14:59.311Z,98556.97
2023-01-15T09:17:23.498Z,98562.44
2023-01-15T09:19:50.355Z,98568.34
2023-01-15T09:22:17.121Z,98568.34
2023-01-15T09:24:43.969Z,98563.56
2023-01-15T09:27:15.618Z,98567.72
2023-01-15T09:29:42.404Z,98568.16
2023-01-15T09:32:10.793Z,98568.34
2023-01-15T09:34:37.666Z,98571.91
2023-01-15T09:37:04.762Z,98578.56
2023-01-15T09:39:32.056Z,98585.19
2023-01-15T09:42:20.943Z,98590.09
2023-01-15T09:45:27.462Z,98602.53
2023-01-15T09:48:25.049Z,98606.09
2023-01-15T09:50:54.424Z,98615.47
2023-01-15T09:53:37.074Z,98606.38
2023-01-15T09:56:05.428Z,98616.47
2023-01-15T09:58:41.531Z,98607.50
2023-01-15T10:01:20.328Z,98610.81
2023-01-15T10:03:51.569Z,98608.59
2023-01-15T10:06:29.336Z,98612.41
2023-01-15T10:09:18.181Z,98607.50
2023-01-15T10:12:11.929Z,98609.81
2023-01-15T10:15:10.989Z,98614.06
2023-01-15T10:17:42.360Z,98619.06
2023-01-15T10:20:45.802Z,98631.47
2023-01-15T10:23:40.488Z,98638.97
2023-01-15T10:26:24.105Z,98651.72
2023-01-15T10:29:21.258Z,98650.97
2023-01-15T10:31:55.237Z,98654.31
2023-01-15T10:34:43.643Z,98649.88
2023-01-15T10:37:23.077Z,98649.03
2023-01-15T10:40:01.869Z,98646.00
2023-01-15T10:42:40.833Z,98646.25
2023-01-15T10:45:19.790Z,98650.22
2023-01-15T10:47:53.692Z,98652.06
2023-01-15T10:50:24.335Z,98655.41
2023-01-15T10:53:09.269Z,98666.16
2023-01-15T10:55:42.847Z,98662.06
2023-01-15T10:58:40.706Z,98678.56
2023-01-15T11:01:16.670Z,98680.13
2023-01-15T11:03:44.779Z,98677.63
2023-01-15T11:06:20.750Z,98687.53
2023-01-15T11:09:09.058Z,98690.00
2023-01-15T11:11:58.961Z,98685.66
2023-01-15T11:15:01.120Z,98683.25
2023-01-15T11:18:04.524Z,98685.81
2023-01-15T11:20:43.313Z,98696.00
2023-01-15T11:23:15.276Z,98698.50
2023-01-15T11:25:58.489Z,98695.81
2023-01-15T11:28:41.760Z,98693.75
2023-01-15T11:31:11.272Z,98700.53
2023-01-15T11:33:39.220Z,98692.34
2023-01-15T11:36:25.995Z,98688.78
2023-01-15T11:38:53.595Z,98693.66
2023-01-15T11:41:47.671Z,98686.59
2023-01-15T11:44:34.927Z,98684.50
2023-01-15T11:47:22.106Z,98684.09
2023-01-15T11:50:14.143Z,98685.19
2023-01-15T11:52:50.758Z,98682.91
2023-01-15T11:55:26.637Z,98676.03
2023-01-15T11:57:55.876Z,98672.16
2023-01-15T12:00:29.468Z,98679.19
2023-01-15T12:03:04.764Z,98679.19
2023-01-15T12:05:36.940Z,98679.53
2023-01-15T12:08:20.877Z,98669.19
2023-01-15T12:11:17.449Z,98671.28
2023-01-15T12:14:26.087Z,98671.94
2023-01-15T12:17:15.007Z,98678.81
2023-01-15T12:19:47.821Z,98671.38
2023-01-15T12:22:50.092Z,98672.19
2023-01-15T12:26:02.070Z,98679.19
2023-01-15T12:28:35.600Z,98670.63
2023-01-15T12:31:16.665Z,98674.16
2023-01-15T12:33:45.923Z,98666.34
2023-01-15T12:36:27.272Z,98680.25
2023-01-15T12:39:02.147Z,98675.44
2023-01-15T12:41:53.094Z,98667.69
2023-01-15T12:44:57.691Z,98662.69
2023-01-15T12:47:47.145Z,98672.47
2023-01-15T12:50:32.124Z,98663.84
2023-01-15T12:53:24.482Z,98658.25
2023-01-15T12:55:57.771Z,98665.03
2023-01-15T12:58:51.707Z,98668.16
2023-01-15T13:01:42.157Z,98667.75
2023-01-15T13:04:32.131Z,98665.38
2023-01-15T13:07:14.832Z,98668.34
2023-01-15T13:10:09.989Z,98665.47
2023-01-15T13:12:36.893Z,98671.91
2023-01-15T13:15:05.116Z,98661.59
2023-01-15T13:17:31.816Z,98671.31
2023-01-15T13:20:13.696Z,98675.28
2023-01-15T13:22:56.102Z,98674.22
2023-01-15T13:26:12.210Z,98673.81
2023-01-15T13:29:08.398Z,98672.56
2023-01-15T13:31:49.270Z,98671.50
2023-01-15T13:34:29.153Z,98670.50
2023-01-15T13:37:04.923Z,98669.34
2023-01-15T13:39:57.407Z,98669.91
2023-01-15T13:42:33.778Z,98660.88
2023-01-15T13:45:23.116Z,98659.66
2023-01-15T13:47:58.915Z,98667.72
2023-01-15T13:50:34.177Z,98666.75
2023-01-15T13:53:16.528Z,98661.91
2023-01-15T13:56:05.740Z,98667.28
2023-01-15T13:58:36.263Z,98664.81
2023-01-15T14:01:09.155Z,98667.31
2023-01-15T14:03:38.467Z,98671.50
2023-01-15T14:06:09.520Z,98671.50
2023-01-15T14:08:45.447Z,98665.06
2023-01-15T14:11:38.948Z,98660.75
2023-01-15T14:14:25.066Z,98671.50
2023-01-15T14:17:00.792Z,98682.28
2023-01-15T14:20:15.543Z,98674.19
2023-01-15T14:23:18.220Z,98673.59
2023-01-15T14:25:54.136Z,98665.91
2023-01-15T14:28:36.434Z,98666.56
2023-01-15T14:31:48.143Z,98658.06
2023-01-15T14:34:18.176Z,98660.28
2023-01-15T14:37:01.686Z,98652.84
2023-01-15T14:39:42.064Z,98653.69
2023-01-15T14:42:36.721Z,98656.56
2023-01-15T14:45:12.971Z,98663.19
2023-01-15T14:47:52.951Z,98668.94
2023-01-15T14:50:39.580Z,98664.41
2023-01-15T14:53:15.197Z,98661.28
2023-01-15T14:56:36.344Z,98656.00
2023-01-15T14:59:26.779Z,98650.19
2023-01-15T15:02:15.492Z,98654.34
2023-01-15T15:04:54.059Z,98650.63
2023-01-15T15:07:25.506Z,98656.59
2023-01-15T15:10:07.107Z,98661.72
2023-01-15T15:12:44.690Z,98651.16
2023-01-15T15:15:23.431Z,98659.63
2023-01-15T15:18:53.079Z,98653.41
2023-01-15T15:21:28.408Z,98657.91
2023-01-15T15:24:24.812Z,98657.06
2023-01-15T15:26:51.728Z,98653.09
2023-01-15T15:29:21.237Z,98650.81
2023-01-15T15:31:56.302Z,98646.63
2023-01-15T15:34:29.577Z,98646.25
2023-01-15T15:37:01.474Z,98648.47
2023-01-15T15:39:55.839Z,98643.22
2023-01-15T15:43:04.294Z,98638.22
2023-01-15T15:45:50.695Z,98628.09
2023-01-15T15:48:41.973Z,98628.69
2023-01-15T15:51:34.029Z,98626.81
2023-01-15T15:54:11.330Z,98634.50
2023-01-15T15:56:46.214Z,98627.81
2023-01-15T15:59:34.222Z,98618.66
2023-01-15T16:02:15.161Z,98623.22
2023-01-15T16:04:48.233Z,98620.72
2023-01-15T16:07:34.486Z,98610.81
2023-01-15T16:10:26.863Z,98609.97
2023-01-15T16:12:58.481Z,98617.22
2023-01-15T16:15:32.980Z,98616.31
2023-01-15T16:18:02.002Z,98607.03
2023-01-15T16:20:29.109Z,98609.50
2023-01-15T16:23:04.048Z,98607.88
2023-01-15T16:25:40.581Z,98605.31
2023-01-15T16:28:23.712Z,98602.22
2023-01-15T16:30:59.487Z,98602.84
2023-01-15T16:33:27.302Z,98596.03
2023-01-15T16:35:59.088Z,98591.88
2023-01-15T16:38:26.698Z,98581.13
2023-01-15T16:40:54.012Z,98586.50
2023-01-15T16:43:26.173Z,98577.13
2023-01-15T16:46:19.738Z,98577.53
2023-01-15T16:48:48.574Z,98574.22
2023-01-15T16:51:34.788Z,98571.44
2023-01-15T16:54:06.368Z,98568.56
2023-01-15T16:56:38.865Z,98567.66
2023-01-15T16:59:17.513Z,98555.50
2023-01-15T17:01:48.894Z,98555.03
2023-01-15T17:04:30.672Z,98548.78
2023-01-15T17:07:05.914Z,98546.28
2023-01-15T17:09:38.336Z,98549.09
2023-01-15T17:12:20.943Z,98543.28
2023-01-15T17:14:47.727Z,98540.78
2023-01-15T17:17:23.397Z,98539.78
2023-01-15T17:19:52.016Z,98532.59
2023-01-15T17:22:31.698Z,98533.72
2023-01-15T17:25:01.185Z,98532.78
2023-01-15T17:27:30.716Z,98533.09
2023-01-15T17:29:57.507Z,98528.91
2023-01-15T17:32:31.960Z,98520.44
2023-01-15T17:34:59.077Z,98523.28
2023-01-15T17:37:25.931Z,98520.34
2023-01-15T17:39:52.703Z,98511.63
2023-01-15T17:42:20.403Z,98511.75
2023-01-15T17:44:47.303Z,98505.28
2023-01-15T17:47:14.207Z,98500.84
2023-01-15T17:49:41.313Z,98505.53
2023-01-15T17:52:18.485Z,98521.47
2023-01-15T17:55:03.694Z,98504.34
2023-01-15T17:57:49.232Z,98498.81
2023-01-15T18:00:35.041Z,98504.44
2023-01-15T18:03:31.028Z,98501.84
2023-01-15T18:05:57.825Z,98492.22
2023-01-15T18:08:24.700Z,98493.88
2023-01-15T18:10:51.575Z,98486.28
2023-01-15T18:13:18.332Z,98483.78
2023-01-15T18:15:45.632Z,98480.34
2023-01-15T18:18:12.600Z,98479.50
2023-01-15T18:20:39.596Z,98481.00
2023-01-15T18:23:06.896Z,98473.78
2023-01-15T18:25:35.222Z,98471.28
2023-01-15T18:28:02.383Z,98463.03
2023-01-15T18:30:29.256Z,98456.84
2023-01-15T18:32:56.039Z,98450.84
2023-01-15T18:35:23.961Z,98450.19
2023-01-15T18:37:50.737Z,98456.94
2023-01-15T18:40:17.790Z,98456.69
2023-01-15T18:43:03.199Z,98452.50
2023-01-15T18:45:48.479Z,98449.19
2023-01-15T18:48:15.155Z,98441.09
2023-01-15T18:50:41.955Z,98435.78
2023-01-15T18:53:08.745Z,98437.19
2023-01-15T18:55:35.629Z,98429.72
2023-01-15T18:58:02.388Z,98424.53
2023-01-15T19:00:29.262Z,98422.22
2023-01-15T19:02:56.100Z,98416.03
2023-01-15T19:05:23.387Z,98416.38
2023-01-15T19:07:50.442Z,98410.38
2023-01-15T19:10:18.511Z,98406.50
2023-01-15T19:12:45.275Z,98407.97
2023-01-15T19:15:37.538Z,98403.25
2023-01-15T19:18:23.955Z,98396.88
2023-01-15T19:20:51.233Z,98391.28
2023-01-15T19:23:20.785Z,98395.38
2023-01-15T19:25:51.449Z,98391.50
2023-01-15T19:28:20.935Z,98391.69
2023-01-15T19:31:09.894Z,98379.75
2023-01-15T19:33:36.833Z,98385.94
2023-01-15T19:36:04.804Z,98376.06
2023-01-15T19:38:33.274Z,98371.69
2023-01-15T19:41:20.185Z,98366.97
2023-01-15T19:44:05.785Z,98358.16
2023-01-15T19:46:51.417Z,98361.25
2023-01-15T19:49:41.307Z,98356.88
2023-01-15T19:52:26.586Z,98347.28
2023-01-15T19:55:00.418Z,98346.00
2023-01-15T19:57:27.251Z,98347.03
2023-01-15T19:59:54.002Z,98346.59
2023-01-15T20:02:21.264Z,98329.13
2023-01-15T20:04:51.780Z,98330.53
2023-01-15T20:07:18.674Z,98327.75
2023-01-15T20:09:45.434Z,98330.25
2023-01-15T20:12:32.500Z,98319.94
2023-01-15T20:14:59.989Z,98310.03
2023-01-15T20:17:29.534Z,98306.31
2023-01-15T20:19:56.860Z,98287.38
2023-01-15T20:22:27.283Z,98292.91
2023-01-15T20:24:54.129Z,98295.81
2023-01-15T20:27:21.158Z,98292.66
2023-01-15T20:29:51.434Z,98290.16
2023-01-15T20:32:18.225Z,98288.50
2023-01-15T20:34:46.855Z,98284.72
2023-01-15T20:37:13.668Z,98279.28
2023-01-15T20:39:40.778Z,98276.22
2023-01-15T20:42:26.002Z,98285.94
2023-01-15T20:44:55.598Z,98276.97
2023-01-15T20:47:46.472Z,98273.53
2023-01-15T20:50:16.871Z,98266.81
2023-01-15T20:52:51.255Z,98270.75
2023-01-15T20:55:19.527Z,98266.50
2023-01-15T20:57:47.419Z,98252.69
2023-01-15T21:00:21.158Z,98253.16
2023-01-15T21:02:48.428Z,98250.28
2023-01-15T21:05:15.618Z,98250.91
2023-01-15T21:07:43.016Z,98247.22
2023-01-15T21:10:13.594Z,98234.72
2023-01-15T21:12:40.470Z,98229.16
2023-01-15T21:15:07.932Z,98225.63
2023-01-15T21:17:35.015Z,98222.78
2023-01-15T21:20:01.818Z,98213.31
2023-01-15T21:22:30.976Z,98212.50
2023-01-15T21:24:58.572Z,98208.78
2023-01-15T21:27:25.753Z,98187.75
2023-01-15T21:29:52.711Z,98179.09
2023-01-15T21:32:19.616Z,98168.94
2023-01-15T21:34:46.401Z,98163.41
2023-01-15T21:37:13.335Z,98166.19
2023-01-15T21:39:40.456Z,98170.25
2023-01-15T21:42:26.809Z,98165.19
2023-01-15T21:44:54.033Z,98145.94
2023-01-15T21:47:20.911Z,98154.09
2023-01-15T21:49:47.685Z,98141.84
2023-01-15T21:52:18.196Z,98146.31
2023-01-15T21:54:46.182Z,98146.22
2023-01-15T21:57:14.201Z,98138.75
2023-01-15T21:59:41.519Z,98126.97
2023-01-15T22:02:15.308Z,98127.91
2023-01-15T22:04:46.173Z,98125.41
2023-01-15T22:07:13.323Z,98123.56
2023-01-15T22:09:40.331Z,98120.88
2023-01-15T22:12:07.571Z,98113.47
2023-01-15T22:14:34.524Z,98120.31
2023-01-15T22:17:04.192Z,98111.25
2023-01-15T22:19:32.926Z,98116.44
2023-01-15T22:22:04.259Z,98104.06
2023-01-15T22:24:34.111Z,98103.22
2023-01-15T22:27:02.725Z,98104.06
2023-01-15T22:29:38.355Z,98102.03
2023-01-15T22:32:06.954Z,98093.38
2023-01-15T22:34:34.167Z,98089.13
2023-01-15T22:37:01.485Z,98066.03
2023-01-15T22:39:28.736Z,98062.28
2023-01-15T22:42:14.114Z,98058.16
2023-01-15T22:44:43.609Z,98052.25
2023-01-15T22:47:10.879Z,98046.03
2023-01-15T22:49:37.670Z,98039.56
2023-01-15T22:52:04.979Z,98030.47
2023-01-15T22:54:32.092Z,98027.31
2023-01-15T22:56:58.915Z,98028.91
2023-01-15T22:59:25.815Z,98032.97
2023-01-15T23:01:52.726Z,98017.66
2023-01-15T23:04:23.861Z,98013.88
2023-01-15T23:06:52.239Z,98005.22
2023-01-15T23:09:21.769Z,98008.06
2023-01-15T23:11:51.651Z,97997.78
2023-01-15T23:14:21.350Z,98000.63
2023-01-15T23:16:49.057Z,98001.63
2023-01-15T23:19:16.452Z,97986.22
2023-01-15T23:21:43.864Z,97979.06
2023-01-15T23:24:11.641Z,97982.53
2023-01-15T23:26:38.763Z,97978.28
2023-01-15T23:29:05.669Z,97974.41
2023-01-15T23:31:33.061Z,97972.19
2023-01-15T23:34:00.361Z,97972.09
2023-01-15T23:36:27.699Z,97968.00
2023-01-15T23:38:55.387Z,97968.47
2023-01-15T23:41:44.295Z,97959.84
2023-01-15T23:44:38.991Z,97954.94
2023-01-15T23:47:08.160Z,97958.25
2023-01-15T23:49:35.217Z,97941.63
2023-01-15T23:52:02.460Z,97942.47
2023-01-15T23:54:31.475Z,97934.69
2023-01-15T23:57:00.694Z,97934.47
2023-01-15T23:59:28.938Z,97938.63
